Time;durP1;ratioP1;P1;durP2;ratioP2;P2;SDS_P1;SDS_P2;PMS_P1;PMS_P2;Temp;Humidity;BMP_temperature;BMP_pressure;BME280_temperature;BME280_humidity;BME280_pressure;Samples;Min_cycle;Max_cycle;Signal;HPM_P1;HPM_P2
2023/06/30 00:00:12;;;;;;;23.03;15.80;;;;;;;16.92;100.00;100459.41;684801;28;1469;-58
2023/06/30 00:00:32;;;;;;;24.27;16.98;;;;;;;16.89;100.00;100470.06;686149;28;1337;-59
2023/06/30 00:00:53;;;;;;;23.37;16.20;;;;;;;16.88;100.00;100468.31;685800;28;4377;-59
2023/06/30 00:01:13;;;;;;;24.30;16.95;;;;;;;16.89;100.00;100466.53;687128;28;1476;-59
2023/06/30 00:01:33;;;;;;;24.20;16.23;;;;;;;16.92;100.00;100477.88;690338;28;745;-60
2023/06/30 00:01:54;;;;;;;25.03;16.77;;;;;;;16.94;100.00;100473.38;691667;28;1973;-60
2023/06/30 00:02:14;;;;;;;23.08;15.75;;;;;;;16.95;100.00;100469.84;693216;28;1596;-59
2023/06/30 00:02:35;;;;;;;21.67;15.73;;;;;;;16.95;100.00;100466.34;695791;28;1340;-58
2023/06/30 00:02:55;;;;;;;22.48;15.80;;;;;;;16.95;100.00;100469.00;694820;28;1286;-59
2023/06/30 00:03:16;;;;;;;23.77;15.53;;;;;;;16.98;100.00;100469.72;693961;28;1533;-61
2023/06/30 00:03:36;;;;;;;22.50;15.40;;;;;;;16.96;100.00;100466.28;695788;28;932;-60
2023/06/30 00:03:56;;;;;;;22.53;16.27;;;;;;;16.94;100.00;100467.25;694410;28;4696;-60
2023/06/30 00:04:22;;;;;;;23.05;15.95;;;;;;;16.93;100.00;100469.00;693522;28;1598;-61
2023/06/30 00:04:43;;;;;;;23.00;15.60;;;;;;;16.88;100.00;100467.41;695628;28;1626;-61
2023/06/30 00:05:04;;;;;;;24.43;15.83;;;;;;;16.91;100.00;100467.38;694678;28;907;-61
2023/06/30 00:05:25;;;;;;;23.40;15.32;;;;;;;16.91;100.00;100472.66;694802;28;987;-61
2023/06/30 00:05:47;;;;;;;21.20;15.23;;;;;;;16.90;100.00;100466.50;695287;28;976;-60
2023/06/30 00:06:07;;;;;;;21.67;14.93;;;;;;;16.94;100.00;100473.38;693765;28;1626;-61
2023/06/30 00:06:28;;;;;;;22.20;15.57;;;;;;;16.92;100.00;100471.72;695208;28;850;-62
2023/06/30 00:06:49;;;;;;;21.77;14.93;;;;;;;16.91;100.00;100468.22;692601;28;821;-62
2023/06/30 00:07:13;;;;;;;21.83;14.57;;;;;;;16.94;100.00;100467.25;689452;28;4489;-61
2023/06/30 00:07:33;;;;;;;19.40;13.57;;;;;;;16.91;100.00;100470.88;692653;28;1043;-62
2023/06/30 00:07:58;;;;;;;19.65;13.77;;;;;;;16.88;100.00;100473.59;690712;28;1417;-61
2023/06/30 00:08:19;;;;;;;19.30;13.32;;;;;;;16.85;100.00;100465.78;690517;28;1563;-62
2023/06/30 00:08:39;;;;;;;18.17;13.37;;;;;;;16.87;100.00;100471.84;689934;28;900;-61
2023/06/30 00:08:59;;;;;;;18.40;13.60;;;;;;;16.87;100.00;100471.00;691252;28;1072;-61
2023/06/30 00:09:20;;;;;;;18.33;13.40;;;;;;;16.91;100.00;100470.88;691032;28;1492;-61
2023/06/30 00:09:41;;;;;;;18.88;13.35;;;;;;;16.97;100.00;100475.91;691756;28;971;-62
2023/06/30 00:10:01;;;;;;;19.03;12.80;;;;;;;16.98;100.00;100472.38;691153;28;4451;-62
2023/06/30 00:10:22;;;;;;;19.17;13.20;;;;;;;16.98;100.00;100477.66;691151;28;967;-61
2023/06/30 00:10:43;;;;;;;18.60;13.23;;;;;;;16.92;100.00;100472.59;695729;28;940;-62
2023/06/30 00:11:03;;;;;;;18.55;13.27;;;;;;;16.86;100.00;100470.13;695436;28;1369;-61
2023/06/30 00:11:24;;;;;;;18.03;12.97;;;;;;;16.85;100.00;100473.69;691404;28;853;-62
2023/06/30 00:11:46;;;;;;;19.55;13.30;;;;;;;16.88;100.00;100480.63;692877;28;817;-61
2023/06/30 00:12:06;;;;;;;18.85;12.98;;;;;;;16.91;100.00;100472.66;691116;28;1639;-62
2023/06/30 00:12:26;;;;;;;17.98;12.43;;;;;;;16.91;100.00;100473.50;692327;28;1219;-62
2023/06/30 00:12:47;;;;;;;17.97;12.63;;;;;;;16.87;100.00;100474.50;687885;28;3690;-61
2023/06/30 00:13:08;;;;;;;18.55;12.93;;;;;;;16.84;100.00;100467.53;688752;28;4348;-62
2023/06/30 00:13:28;;;;;;;17.55;12.68;;;;;;;16.80;100.00;100465.91;691716;28;972;-62
2023/06/30 00:13:52;;;;;;;18.07;12.33;;;;;;;16.75;100.00;100472.25;689989;28;975;-62
2023/06/30 00:14:13;;;;;;;18.25;12.43;;;;;;;16.75;100.00;100466.97;688265;28;1642;-61
2023/06/30 00:14:33;;;;;;;17.30;12.17;;;;;;;16.79;100.00;100471.25;688870;28;841;-62
2023/06/30 00:14:54;;;;;;;18.10;12.37;;;;;;;16.77;100.00;100467.81;690677;28;1021;-62
2023/06/30 00:15:14;;;;;;;17.35;12.07;;;;;;;16.75;100.00;100461.69;688747;28;1628;-61
2023/06/30 00:15:35;;;;;;;18.35;12.05;;;;;;;16.78;100.00;100464.22;688553;28;762;-61
2023/06/30 00:15:55;;;;;;;17.37;11.97;;;;;;;16.80;100.00;100463.28;691504;28;4738;-61
2023/06/30 00:16:16;;;;;;;16.58;11.98;;;;;;;16.76;100.00;100463.44;691479;28;1620;-62
2023/06/30 00:16:36;;;;;;;15.43;11.53;;;;;;;16.71;100.00;100462.72;695368;28;1002;-62
2023/06/30 00:16:57;;;;;;;16.65;11.90;;;;;;;16.72;100.00;100462.66;691144;28;917;-60
2023/06/30 00:17:17;;;;;;;15.90;11.73;;;;;;;16.73;100.00;100464.41;690640;28;1479;-60
2023/06/30 00:17:37;;;;;;;16.50;11.90;;;;;;;16.79;100.00;100463.31;690434;28;1027;-60
2023/06/30 00:17:58;;;;;;;16.33;11.38;;;;;;;16.87;100.00;100461.28;692023;28;920;-60
2023/06/30 00:18:18;;;;;;;16.27;11.40;;;;;;;16.84;100.00;100467.53;691008;28;1498;-60
2023/06/30 00:18:39;;;;;;;16.92;11.32;;;;;;;16.82;100.00;100465.84;692335;28;1062;-60
2023/06/30 00:19:00;;;;;;;15.23;10.80;;;;;;;16.83;100.00;100464.94;694988;28;4516;-59
2023/06/30 00:19:20;;;;;;;13.65;9.85;;;;;;;16.77;100.00;100468.66;694525;28;1121;-59
2023/06/30 00:19:41;;;;;;;14.30;10.05;;;;;;;16.76;100.00;100463.44;695117;28;928;-59
2023/06/30 00:20:06;;;;;;;14.77;10.23;;;;;;;16.69;100.00;100462.78;695960;28;930;-59
2023/06/30 00:20:26;;;;;;;14.95;10.30;;;;;;;16.65;100.00;100469.91;695644;28;987;-60
2023/06/30 00:20:47;;;;;;;14.53;10.07;;;;;;;16.64;100.00;100468.22;692303;28;1535;-59
2023/06/30 00:21:08;;;;;;;14.57;10.25;;;;;;;16.60;100.00;100469.22;691704;28;1791;-60
2023/06/30 00:21:28;;;;;;;14.27;10.13;;;;;;;16.62;100.00;100462.09;692917;28;873;-59
2023/06/30 00:21:52;;;;;;;15.00;9.88;;;;;;;16.61;100.00;100472.72;691605;28;1973;-59
2023/06/30 00:22:12;;;;;;;15.05;10.20;;;;;;;16.62;100.00;100480.56;690072;28;5755;-61
2023/06/30 00:22:35;;;;;;;15.03;10.07;;;;;;;16.62;100.00;100469.19;693492;28;830;-59
2023/06/30 00:22:55;;;;;;;14.02;9.88;;;;;;;16.60;100.00;100474.50;695580;28;848;-60
2023/06/30 00:23:16;;;;;;;14.60;9.83;;;;;;;16.55;100.00;100472.94;694448;28;1578;-59
2023/06/30 00:23:36;;;;;;;13.52;9.80;;;;;;;16.54;100.00;100474.69;695793;28;813;-58
2023/06/30 00:24:01;;;;;;;14.33;10.23;;;;;;;16.54;100.00;100479.97;694417;28;5294;-59
2023/06/30 00:24:22;;;;;;;15.93;10.75;;;;;;;16.52;100.00;100477.38;694335;28;1514;-60
2023/06/30 00:24:42;;;;;;;14.50;10.07;;;;;;;16.50;100.00;100473.06;695430;28;809;-60
2023/06/30 00:25:05;;;;;;;15.03;10.20;;;;;;;16.49;100.00;100476.59;695032;28;4530;-60
2023/06/30 00:25:25;;;;;;;14.80;10.07;;;;;;;16.46;100.00;100471.44;695635;28;1373;-60
2023/06/30 00:25:46;;;;;;;16.83;10.53;;;;;;;16.47;100.00;100478.44;695450;28;861;-60
2023/06/30 00:26:06;;;;;;;15.48;10.32;;;;;;;16.48;100.00;100474.91;690698;28;1590;-60
2023/06/30 00:26:28;;;;;;;14.93;10.10;;;;;;;16.46;100.00;100467.03;692686;28;957;-61
2023/06/30 00:26:50;;;;;;;14.93;10.32;;;;;;;16.43;100.00;100482.09;692669;28;1573;-60
2023/06/30 00:27:10;;;;;;;15.90;10.15;;;;;;;16.41;100.00;100476.88;691290;28;1486;-60
2023/06/30 00:27:31;;;;;;;16.02;10.75;;;;;;;16.41;100.00;100470.75;692750;28;813;-61
2023/06/30 00:27:51;;;;;;;14.97;10.53;;;;;;;16.45;100.00;100475.00;691989;28;4505;-60
2023/06/30 00:28:14;;;;;;;15.05;10.30;;;;;;;16.47;100.00;100473.16;694079;28;1738;-61
2023/06/30 00:28:35;;;;;;;14.85;10.13;;;;;;;16.49;100.00;100471.31;695684;28;1448;-61
2023/06/30 00:28:57;;;;;;;14.40;9.88;;;;;;;16.44;100.00;100479.41;695168;28;865;-60
2023/06/30 00:29:17;;;;;;;15.73;10.57;;;;;;;16.51;100.00;100480.06;693574;28;1869;-60
2023/06/30 00:29:38;;;;;;;15.52;10.60;;;;;;;16.51;100.00;100477.44;695460;28;1156;-61
2023/06/30 00:29:58;;;;;;;15.47;10.97;;;;;;;16.55;100.00;100471.16;695127;28;829;-60
2023/06/30 00:30:20;;;;;;;14.65;10.50;;;;;;;16.52;100.00;100472.09;691097;28;1520;-60
2023/06/30 00:30:42;;;;;;;14.80;10.65;;;;;;;16.49;100.00;100471.31;692715;28;907;-60
2023/06/30 00:31:02;;;;;;;15.27;11.10;;;;;;;16.46;100.00;100476.72;689439;28;4528;-60
2023/06/30 00:31:23;;;;;;;15.17;11.07;;;;;;;16.46;100.00;100474.06;688425;28;1516;-60
2023/06/30 00:31:44;;;;;;;16.20;11.05;;;;;;;16.46;100.00;100471.44;689779;28;1426;-61
2023/06/30 00:32:05;;;;;;;15.90;11.50;;;;;;;16.53;100.00;100478.22;689358;28;872;-61
2023/06/30 00:32:27;;;;;;;16.00;11.90;;;;;;;16.51;100.00;100474.78;690149;28;1102;-60
2023/06/30 00:32:48;;;;;;;17.33;12.13;;;;;;;16.53;100.00;100472.97;692720;28;1082;-61
2023/06/30 00:33:08;;;;;;;15.27;10.87;;;;;;;16.50;100.00;100476.59;694159;28;1650;-61
2023/06/30 00:33:28;;;;;;;15.80;11.30;;;;;;;16.45;100.00;100475.88;695293;28;1520;-62
2023/06/30 00:33:49;;;;;;;15.97;11.33;;;;;;;16.42;100.00;100469.81;694807;28;876;-60
2023/06/30 00:34:10;;;;;;;17.35;12.23;;;;;;;16.43;100.00;100471.53;689842;28;5005;-60
2023/06/30 00:34:32;;;;;;;16.58;11.75;;;;;;;16.46;100.00;100482.00;692237;28;1250;-61
2023/06/30 00:34:52;;;;;;;16.57;11.30;;;;;;;16.41;100.00;100474.22;692794;28;888;-61
2023/06/30 00:35:12;;;;;;;16.25;11.43;;;;;;;16.44;100.00;100478.56;691501;28;1480;-61
2023/06/30 00:35:34;;;;;;;16.05;11.32;;;;;;;16.43;100.00;100474.19;692647;28;852;-61
2023/06/30 00:35:55;;;;;;;16.13;11.07;;;;;;;16.40;100.00;100472.50;689815;28;2191;-61
2023/06/30 00:36:15;;;;;;;17.40;11.35;;;;;;;16.40;100.00;100480.41;685714;28;1659;-61
2023/06/30 00:36:36;;;;;;;15.90;11.35;;;;;;;16.39;100.00;100476.03;688068;28;1399;-61
2023/06/30 00:36:56;;;;;;;15.50;10.63;;;;;;;16.32;100.00;100474.50;685827;28;4393;-60
2023/06/30 00:37:18;;;;;;;15.77;11.25;;;;;;;16.33;100.00;100479.75;682578;28;1682;-60
2023/06/30 00:37:38;;;;;;;16.80;11.53;;;;;;;16.39;100.00;100476.03;682810;28;952;-60
2023/06/30 00:37:59;;;;;;;15.50;10.77;;;;;;;16.34;100.00;100470.06;686437;28;1529;-60
2023/06/30 00:38:19;;;;;;;16.17;11.20;;;;;;;16.32;100.00;100471.88;688478;28;1578;-60
2023/06/30 00:38:39;;;;;;;16.40;11.03;;;;;;;16.36;100.00;100472.66;686380;28;1318;-60
2023/06/30 00:39:00;;;;;;;15.80;10.88;;;;;;;16.37;100.00;100471.75;685603;28;882;-60
2023/06/30 00:39:20;;;;;;;14.30;10.70;;;;;;;16.41;100.00;100468.97;685036;28;1606;-59
2023/06/30 00:39:41;;;;;;;14.10;10.25;;;;;;;16.40;100.00;100472.50;686022;28;1320;-60
2023/06/30 00:40:01;;;;;;;14.23;10.30;;;;;;;16.38;100.00;100473.47;686143;28;4310;-60
2023/06/30 00:40:21;;;;;;;14.03;10.33;;;;;;;16.37;100.00;100471.75;687281;28;972;-59
2023/06/30 00:40:42;;;;;;;16.15;11.13;;;;;;;16.34;100.00;100473.56;691144;28;788;-60
2023/06/30 00:41:02;;;;;;;16.03;11.07;;;;;;;16.34;100.00;100473.56;690139;28;1383;-59
2023/06/30 00:41:23;;;;;;;14.50;10.93;;;;;;;16.31;100.00;100470.13;688220;28;1489;-59
2023/06/30 00:41:44;;;;;;;15.25;11.32;;;;;;;16.34;100.00;100472.72;689620;28;916;-59
2023/06/30 00:42:05;;;;;;;15.33;11.10;;;;;;;16.26;100.00;100470.31;687053;28;1902;-60
2023/06/30 00:42:25;;;;;;;15.45;10.65;;;;;;;16.22;100.00;100471.31;687340;28;849;-58
2023/06/30 00:42:47;;;;;;;14.43;10.32;;;;;;;16.18;100.00;100469.69;687154;28;1606;-57
2023/06/30 00:43:07;;;;;;;14.50;10.45;;;;;;;16.23;100.00;100469.56;687581;28;4502;-59
2023/06/30 00:43:28;;;;;;;14.47;10.50;;;;;;;16.19;100.00;100471.41;690211;28;1386;-59
2023/06/30 00:43:48;;;;;;;12.95;10.05;;;;;;;16.19;100.00;100468.78;692157;28;1170;-59
2023/06/30 00:44:10;;;;;;;12.57;9.55;;;;;;;16.19;100.00;100473.19;691035;28;1529;-59
2023/06/30 00:44:31;;;;;;;13.33;9.33;;;;;;;16.19;100.00;100474.03;692582;28;880;-58
2023/06/30 00:44:51;;;;;;;12.80;9.40;;;;;;;16.15;100.00;100470.63;692073;28;1315;-59
2023/06/30 00:45:13;;;;;;;12.50;9.13;;;;;;;16.14;100.00;100471.56;690608;28;1499;-59
2023/06/30 00:45:33;;;;;;;12.18;9.27;;;;;;;16.14;100.00;100475.97;692072;28;876;-59
2023/06/30 00:45:53;;;;;;;12.90;9.47;;;;;;;16.21;100.00;100474.00;689758;28;4401;-59
2023/06/30 00:46:17;;;;;;;12.93;9.10;;;;;;;16.15;100.00;100473.25;690637;28;1745;-59
2023/06/30 00:46:37;;;;;;;12.40;9.35;;;;;;;16.14;100.00;100475.97;689718;28;1306;-58
2023/06/30 00:47:00;;;;;;;11.97;8.90;;;;;;;16.11;100.00;100476.06;688194;28;1168;-59
2023/06/30 00:47:21;;;;;;;13.23;9.05;;;;;;;16.08;100.00;100471.72;687159;28;2204;-58
2023/06/30 00:47:41;;;;;;;12.20;8.82;;;;;;;16.07;100.00;100470.00;688353;28;919;-58
2023/06/30 00:48:03;;;;;;;12.43;8.50;;;;;;;16.05;100.00;100478.88;687031;28;891;-59
2023/06/30 00:48:23;;;;;;;10.85;7.93;;;;;;;15.99;100.00;100477.28;685153;28;1177;-58
2023/06/30 00:48:44;;;;;;;10.33;7.50;;;;;;;16.00;100.00;100484.28;686603;28;1048;-59
2023/06/30 00:49:06;;;;;;;11.10;7.75;;;;;;;15.96;100.00;100475.63;687812;28;4485;-58
2023/06/30 00:49:28;;;;;;;9.73;7.00;;;;;;;15.91;100.00;100476.66;690841;28;1471;-59
2023/06/30 00:49:48;;;;;;;9.45;6.45;;;;;;;15.91;100.00;100480.16;692067;28;931;-59
2023/06/30 00:50:10;;;;;;;8.23;6.22;;;;;;;15.86;100.00;100481.22;693769;28;1571;-59
2023/06/30 00:50:30;;;;;;;8.30;6.30;;;;;;;15.87;100.00;100481.16;694644;28;1107;-58
2023/06/30 00:50:52;;;;;;;8.98;6.60;;;;;;;15.90;100.00;100482.84;692246;28;1233;-59
2023/06/30 00:51:14;;;;;;;9.25;6.70;;;;;;;15.98;100.00;100483.50;691070;28;1532;-59
2023/06/30 00:51:34;;;;;;;8.95;6.50;;;;;;;15.89;100.00;100486.38;689046;28;1347;-59
2023/06/30 00:51:55;;;;;;;8.07;5.63;;;;;;;15.87;100.00;100482.91;689392;28;4373;-58
2023/06/30 00:52:15;;;;;;;8.00;5.67;;;;;;;15.85;100.00;100480.31;688310;28;1508;-59
2023/06/30 00:52:37;;;;;;;7.90;5.90;;;;;;;15.82;100.00;100481.31;690468;28;888;-59
2023/06/30 00:52:59;;;;;;;8.30;5.93;;;;;;;15.84;100.00;100491.81;691328;28;1216;-58
2023/06/30 00:53:19;;;;;;;8.57;5.70;;;;;;;15.85;100.00;100485.59;689812;28;1512;-59
2023/06/30 00:53:40;;;;;;;8.25;5.47;;;;;;;15.90;100.00;100486.34;693753;28;932;-59
2023/06/30 00:54:00;;;;;;;8.25;5.50;;;;;;;15.89;100.00;100481.97;689219;28;1841;-59
2023/06/30 00:54:21;;;;;;;7.03;5.10;;;;;;;15.84;100.00;100489.16;689827;28;1668;-58
2023/06/30 00:54:43;;;;;;;6.65;4.32;;;;;;;15.88;100.00;100489.91;688794;28;1484;-60
2023/06/30 00:55:07;;;;;;;6.00;4.20;;;;;;;15.86;100.00;100491.75;687916;28;4433;-58
2023/06/30 00:55:28;;;;;;;5.90;3.80;;;;;;;15.79;100.00;100483.13;688800;28;1146;-59
2023/06/30 00:55:50;;;;;;;5.93;3.55;;;;;;;15.71;100.00;100482.50;690118;28;848;-58
2023/06/30 00:56:10;;;;;;;5.33;3.40;;;;;;;15.72;100.00;100482.44;688471;28;1536;-60
2023/06/30 00:56:30;;;;;;;4.93;3.23;;;;;;;15.66;100.00;100485.25;689611;28;1461;-59
2023/06/30 00:56:51;;;;;;;5.57;3.40;;;;;;;15.62;100.00;100481.84;689701;28;1505;-58
2023/06/30 00:57:12;;;;;;;5.60;3.45;;;;;;;15.61;100.00;100488.00;689535;28;1464;-59
2023/06/30 00:57:33;;;;;;;6.50;3.47;;;;;;;15.55;100.00;100477.66;689069;28;1176;-59
2023/06/30 00:57:54;;;;;;;7.35;3.80;;;;;;;15.52;100.00;100483.03;689330;28;4528;-59
2023/06/30 00:58:14;;;;;;;5.70;3.33;;;;;;;15.47;100.00;100484.91;685286;28;1250;-60
2023/06/30 00:58:34;;;;;;;5.47;3.40;;;;;;;15.48;100.00;100482.22;686349;28;1446;-60
2023/06/30 00:58:57;;;;;;;5.20;3.30;;;;;;;15.53;100.00;100482.09;684642;28;1726;-61
2023/06/30 00:59:17;;;;;;;5.07;3.53;;;;;;;15.57;100.00;100482.88;679850;28;2103;-63
2023/06/30 00:59:37;;;;;;;5.40;3.33;;;;;;;15.55;100.00;100482.94;683830;28;1316;-61
2023/06/30 01:00:05;;;;;;;5.72;3.13;;;;;;;15.58;100.00;100482.84;682926;28;904;-61
2023/06/30 01:00:26;;;;;;;5.50;3.03;;;;;;;15.61;100.00;100477.47;685248;28;861;-61
2023/06/30 01:00:46;;;;;;;4.90;3.00;;;;;;;15.58;100.00;100474.94;684500;28;1328;-61
2023/06/30 01:01:15;;;;;;;5.50;3.10;;;;;;;15.59;100.00;100478.41;685986;28;4520;-61
2023/06/30 01:01:47;;;;;;;4.82;2.97;;;;;;;15.64;100.00;100481.78;688955;28;856;-61
2023/06/30 01:02:26;;;;;;;4.80;2.75;;;;;;;15.63;100.00;100472.16;685892;28;1528;-59
2023/06/30 01:03:15;;;;;;;4.07;2.22;;;;;;;15.59;100.00;100471.41;687277;28;1363;-58
2023/06/30 01:03:45;;;;;;;4.00;2.30;;;;;;;15.44;100.00;100472.69;686971;28;1003;-58
2023/06/30 01:04:23;;;;;;;5.00;2.08;;;;;;;15.27;100.00;100473.16;685610;28;4526;-58
2023/06/30 01:04:56;;;;;;;3.72;2.40;;;;;;;15.28;100.00;100477.50;687636;28;920;-58
2023/06/30 01:05:25;;;;;;;4.70;2.17;;;;;;;15.33;100.00;100472.97;685251;28;1551;-58
2023/06/30 01:06:00;;;;;;;4.50;1.88;;;;;;;15.38;100.00;100472.88;689152;28;1043;-58
2023/06/30 01:06:37;;;;;;;5.30;1.90;;;;;;;15.25;100.00;100472.31;691538;28;1524;-58
2023/06/30 01:07:22;;;;;;;3.53;2.10;;;;;;;15.17;100.00;100482.19;692218;28;4718;-57
2023/06/30 01:07:53;;;;;;;3.88;1.80;;;;;;;15.12;100.00;100481.47;694450;28;1251;-56
2023/06/30 01:08:22;;;;;;;3.03;1.90;;;;;;;15.04;100.00;100483.44;694628;28;1577;-57
2023/06/30 01:08:58;;;;;;;5.20;1.92;;;;;;;15.03;100.00;100484.34;696156;28;907;-57
2023/06/30 01:09:23;;;;;;;3.70;1.98;;;;;;;15.01;100.00;100486.13;693939;28;1509;-57
2023/06/30 01:09:53;;;;;;;3.42;2.00;;;;;;;14.93;100.00;100491.63;692251;28;932;-57
2023/06/30 01:10:17;;;;;;;4.65;1.88;;;;;;;14.98;100.00;100482.69;690935;28;4930;-57
2023/06/30 01:10:42;;;;;;;3.05;1.70;;;;;;;14.97;100.00;100490.63;692396;28;1237;-57
2023/06/30 01:11:03;;;;;;;4.00;1.98;;;;;;;14.95;100.00;100492.44;692505;28;1512;-57
2023/06/30 01:11:24;;;;;;;4.15;1.90;;;;;;;14.92;100.00;100487.25;691779;28;1479;-57
2023/06/30 01:11:46;;;;;;;4.20;1.88;;;;;;;15.03;100.00;100490.47;694956;28;2003;-57
2023/06/30 01:12:07;;;;;;;3.65;1.90;;;;;;;14.98;100.00;100498.50;693453;28;1696;-57
2023/06/30 01:12:28;;;;;;;3.45;1.70;;;;;;;14.96;100.00;100489.75;690877;28;1413;-57
2023/06/30 01:12:49;;;;;;;3.07;1.80;;;;;;;14.95;100.00;100492.44;692161;28;1543;-57
2023/06/30 01:13:11;;;;;;;4.65;1.95;;;;;;;14.91;100.00;100485.50;689138;28;4647;-57
2023/06/30 01:13:33;;;;;;;4.05;2.08;;;;;;;14.94;100.00;100488.09;685726;28;1466;-57
2023/06/30 01:13:55;;;;;;;3.33;1.80;;;;;;;14.96;100.00;100492.38;685820;28;1129;-57
2023/06/30 01:14:17;;;;;;;3.33;1.90;;;;;;;14.97;100.00;100502.00;685859;28;1556;-56
2023/06/30 01:14:38;;;;;;;3.35;2.05;;;;;;;14.92;100.00;100488.09;690593;28;920;-57
2023/06/30 01:15:00;;;;;;;6.47;2.05;;;;;;;14.90;100.00;100492.56;687932;28;837;-56
2023/06/30 01:15:22;;;;;;;4.18;1.70;;;;;;;14.89;100.00;100490.81;685822;28;1477;-56
2023/06/30 01:15:44;;;;;;;3.67;1.80;;;;;;;14.89;100.00;100485.56;691487;28;1327;-57
2023/06/30 01:16:09;;;;;;;3.25;1.80;;;;;;;14.92;100.00;100492.50;691223;28;4554;-57
2023/06/30 01:16:33;;;;;;;4.80;1.90;;;;;;;14.88;100.00;100491.72;690776;28;2480;-57
2023/06/30 01:16:54;;;;;;;5.95;2.20;;;;;;;14.81;100.00;100498.03;690491;28;1267;-56
2023/06/30 01:17:18;;;;;;;4.35;2.20;;;;;;;14.79;100.00;100492.81;689944;28;1763;-56
2023/06/30 01:17:44;;;;;;;4.38;1.90;;;;;;;14.79;100.00;100491.97;690984;28;1016;-55
2023/06/30 01:18:05;;;;;;;3.97;1.80;;;;;;;14.80;100.00;100491.03;689858;28;1215;-56
2023/06/30 01:18:32;;;;;;;3.95;1.90;;;;;;;14.84;100.00;100502.38;685939;28;1344;-57
2023/06/30 01:18:55;;;;;;;4.57;1.98;;;;;;;14.82;100.00;100495.38;688945;28;4468;-57
2023/06/30 01:19:44;;;;;;;4.72;2.08;;;;;;;14.71;100.00;100499.19;689150;28;1572;-56
2023/06/30 01:20:09;;;;;;;4.60;1.88;;;;;;;14.72;100.00;100499.16;680618;28;1848;-56
2023/06/30 01:20:32;;;;;;;6.25;2.00;;;;;;;14.72;100.00;100507.03;692440;28;1358;-57
2023/06/30 01:20:54;;;;;;;4.18;2.00;;;;;;;14.70;100.00;100502.72;692520;28;924;-57
2023/06/30 01:21:16;;;;;;;3.58;1.80;;;;;;;14.72;100.00;100503.56;691809;28;1495;-56
2023/06/30 01:21:37;;;;;;;4.15;2.00;;;;;;;14.75;100.00;100503.47;689383;28;897;-57
2023/06/30 01:22:04;;;;;;;3.58;2.08;;;;;;;14.75;100.00;100506.94;688417;28;4737;-57
2023/06/30 01:22:31;;;;;;;5.07;1.98;;;;;;;14.77;100.00;100509.53;690305;28;1614;-57
2023/06/30 01:23:15;;;;;;;4.57;2.17;;;;;;;14.72;100.00;100507.03;691910;28;1511;-57
2023/06/30 01:23:38;;;;;;;3.65;1.90;;;;;;;14.73;100.00;100508.78;693746;28;1294;-57
2023/06/30 01:24:06;;;;;;;3.58;1.95;;;;;;;14.70;100.00;100510.59;690835;28;5366;-56
2023/06/30 01:24:34;;;;;;;3.70;1.88;;;;;;;14.72;100.00;100516.72;691993;28;992;-57
2023/06/30 01:25:01;;;;;;;4.25;2.10;;;;;;;14.74;100.00;100507.00;689637;28;4300;-57
2023/06/30 01:25:29;;;;;;;5.15;1.95;;;;;;;14.78;100.00;100508.66;687501;28;1532;-57
2023/06/30 01:25:50;;;;;;;4.70;2.17;;;;;;;14.78;100.00;100511.28;688568;28;734;-55
2023/06/30 01:26:11;;;;;;;4.30;2.10;;;;;;;14.74;100.00;100507.84;690269;28;1645;-54
2023/06/30 01:26:34;;;;;;;3.50;2.13;;;;;;;14.69;100.00;100512.38;692683;28;936;-56
2023/06/30 01:26:54;;;;;;;4.20;1.90;;;;;;;14.66;100.00;100507.16;692668;28;1346;-56
2023/06/30 01:27:15;;;;;;;4.22;2.17;;;;;;;14.64;100.00;100503.72;691068;28;1465;-56
2023/06/30 01:27:39;;;;;;;3.92;2.00;;;;;;;14.66;100.00;100504.53;692580;28;915;-56
2023/06/30 01:28:02;;;;;;;4.05;2.15;;;;;;;14.72;100.00;100504.41;692218;28;4382;-56
2023/06/30 01:28:23;;;;;;;4.38;2.20;;;;;;;14.75;100.00;100503.47;688513;28;1507;-57
2023/06/30 01:28:43;;;;;;;4.33;2.13;;;;;;;14.71;100.00;100504.44;690200;28;1529;-56
2023/06/30 01:29:06;;;;;;;4.17;2.20;;;;;;;14.67;100.00;100503.66;687275;28;1150;-56
2023/06/30 01:29:27;;;;;;;3.60;1.95;;;;;;;14.64;100.00;100504.56;686768;28;992;-56
2023/06/30 01:29:49;;;;;;;4.00;2.00;;;;;;;14.64;100.00;100503.72;685461;28;856;-56
2023/06/30 01:30:09;;;;;;;4.72;2.15;;;;;;;14.68;100.00;100502.75;685283;28;1520;-56
2023/06/30 01:30:31;;;;;;;4.15;2.28;;;;;;;14.60;100.00;100497.63;685199;28;1277;-55
2023/06/30 01:30:52;;;;;;;4.07;2.10;;;;;;;14.59;100.00;100501.19;687239;28;4790;-56
2023/06/30 01:31:13;;;;;;;4.70;2.20;;;;;;;14.55;100.00;100503.91;688602;28;1056;-56
2023/06/30 01:31:35;;;;;;;4.65;2.22;;;;;;;14.60;100.00;100499.41;690263;28;1035;-56
2023/06/30 01:31:56;;;;;;;4.50;2.40;;;;;;;14.59;100.00;100500.28;686799;28;1415;-56
2023/06/30 01:32:17;;;;;;;3.40;2.22;;;;;;;14.62;100.00;100501.13;688880;28;2562;-56
2023/06/30 01:32:38;;;;;;;4.38;1.95;;;;;;;14.64;100.00;100495.84;692721;28;1089;-57
2023/06/30 01:32:59;;;;;;;5.10;2.17;;;;;;;14.62;100.00;100501.13;687284;28;1123;-56
2023/06/30 01:33:21;;;;;;;4.07;2.25;;;;;;;14.62;100.00;100495.88;685141;28;1514;-56
2023/06/30 01:33:43;;;;;;;4.10;2.20;;;;;;;14.68;100.00;100494.84;686789;28;948;-57
2023/06/30 01:34:04;;;;;;;5.33;2.13;;;;;;;14.68;100.00;100499.25;685709;28;4534;-56
2023/06/30 01:34:25;;;;;;;5.93;2.20;;;;;;;14.67;100.00;100492.25;684358;28;1475;-56
2023/06/30 01:34:46;;;;;;;3.95;2.17;;;;;;;14.67;100.00;100500.16;684873;28;1247;-55
2023/06/30 01:35:07;;;;;;;4.85;2.40;;;;;;;14.69;100.00;100495.72;685388;28;1530;-57
2023/06/30 01:35:28;;;;;;;4.53;2.30;;;;;;;14.77;100.00;100491.13;685872;28;906;-56
2023/06/30 01:35:49;;;;;;;4.05;2.20;;;;;;;14.79;100.00;100498.09;687550;28;1670;-57
2023/06/30 01:36:09;;;;;;;3.90;2.30;;;;;;;14.80;100.00;100494.56;687834;28;1499;-57
2023/06/30 01:36:30;;;;;;;4.03;2.17;;;;;;;14.76;100.00;100487.63;685968;28;1236;-56
2023/06/30 01:36:53;;;;;;;3.78;2.50;;;;;;;14.72;100.00;100493.03;684777;28;4594;-56
2023/06/30 01:37:14;;;;;;;4.43;2.20;;;;;;;14.75;100.00;100495.56;686157;28;1465;-56
2023/06/30 01:37:35;;;;;;;4.35;2.17;;;;;;;14.74;100.00;100493.84;685273;28;849;-56
2023/06/30 01:37:56;;;;;;;3.92;2.15;;;;;;;14.71;100.00;100486.03;687081;28;1044;-57
2023/06/30 01:38:16;;;;;;;3.75;2.17;;;;;;;14.73;100.00;100486.84;685975;28;1479;-55
2023/06/30 01:38:37;;;;;;;5.15;2.30;;;;;;;14.70;100.00;100481.66;689097;28;858;-56
2023/06/30 01:38:57;;;;;;;5.40;2.33;;;;;;;14.70;100.00;100486.91;690462;28;920;-56
2023/06/30 01:39:18;;;;;;;4.90;2.30;;;;;;;14.68;100.00;100484.34;687776;28;1477;-54
2023/06/30 01:39:38;;;;;;;4.90;2.40;;;;;;;14.74;100.00;100478.06;688080;28;1566;-57
2023/06/30 01:40:03;;;;;;;4.00;2.28;;;;;;;14.71;100.00;100480.75;687043;28;4378;-55
2023/06/30 01:40:24;;;;;;;4.20;2.30;;;;;;;14.73;100.00;100484.22;684038;28;1507;-57
2023/06/30 01:40:46;;;;;;;4.20;2.40;;;;;;;14.73;100.00;100492.09;681964;29;1212;-56
2023/06/30 01:41:08;;;;;;;5.70;2.50;;;;;;;14.70;100.00;100489.56;682982;28;960;-56
2023/06/30 01:41:29;;;;;;;4.72;2.47;;;;;;;14.67;100.00;100481.75;684130;28;1312;-54
2023/06/30 01:41:49;;;;;;;4.63;2.40;;;;;;;14.69;100.00;100485.19;684571;28;1906;-55
2023/06/30 01:42:10;;;;;;;4.97;2.30;;;;;;;14.66;100.00;100490.53;683579;28;1758;-56
2023/06/30 01:42:31;;;;;;;4.95;2.40;;;;;;;14.60;100.00;100484.47;685055;28;916;-57
2023/06/30 01:42:54;;;;;;;6.25;2.60;;;;;;;14.64;100.00;100494.06;686915;28;4771;-55
2023/06/30 01:43:16;;;;;;;4.15;2.40;;;;;;;14.55;100.00;100481.13;688758;28;1460;-54
2023/06/30 01:43:37;;;;;;;3.50;2.30;;;;;;;14.58;100.00;100480.16;685523;28;1591;-56
2023/06/30 01:43:58;;;;;;;4.75;2.58;;;;;;;14.57;100.00;100481.94;687479;28;1432;-56